sensor_id;sensor_type;location;lat;lon;timestamp;pressure;altitude;pressure_sealevel;temperature;humidity
68506;BME280;55509;50.680;17.942;2023-01-27T00:02:42;99974.80;;;-0.65;87.95
68506;BME280;55509;50.680;17.942;2023-01-27T00:05:44;99973.68;;;-0.61;88.15
68506;BME280;55509;50.680;17.942;2023-01-27T00:08:46;99973.23;;;-0.58;88.03
68506;BME280;55509;50.680;17.942;2023-01-27T00:11:47;99974.64;;;-0.57;88.18
68506;BME280;55509;50.680;17.942;2023-01-27T00:15:08;99973.25;;;-0.57;88.06
68506;BME280;55509;50.680;17.942;2023-01-27T00:18:10;99977.16;;;-0.60;87.77
68506;BME280;55509;50.680;17.942;2023-01-27T00:21:12;99981.60;;;-0.62;88.21
68506;BME280;55509;50.680;17.942;2023-01-27T00:24:32;99978.08;;;-0.66;88.00
68506;BME280;55509;50.680;17.942;2023-01-27T00:27:37;99982.11;;;-0.70;87.99
68506;BME280;55509;50.680;17.942;2023-01-27T00:30:39;99980.63;;;-0.75;88.07
68506;BME280;55509;50.680;17.942;2023-01-27T00:33:40;99981.23;;;-0.80;88.16
68506;BME280;55509;50.680;17.942;2023-01-27T00:36:46;99979.13;;;-0.81;87.92
68506;BME280;55509;50.680;17.942;2023-01-27T00:39:47;99978.62;;;-0.80;87.99
68506;BME280;55509;50.680;17.942;2023-01-27T00:42:49;99978.86;;;-0.76;88.05
68506;BME280;55509;50.680;17.942;2023-01-27T00:45:50;99974.61;;;-0.73;88.03
68506;BME280;55509;50.680;17.942;2023-01-27T00:48:52;99972.80;;;-0.70;88.20
68506;BME280;55509;50.680;17.942;2023-01-27T00:51:54;99976.33;;;-0.67;88.33
68506;BME280;55509;50.680;17.942;2023-01-27T00:54:56;99973.23;;;-0.66;88.17
68506;BME280;55509;50.680;17.942;2023-01-27T00:57:57;99976.66;;;-0.67;88.38
68506;BME280;55509;50.680;17.942;2023-01-27T01:00:59;99971.30;;;-0.68;88.66
68506;BME280;55509;50.680;17.942;2023-01-27T01:04:01;99974.02;;;-0.70;88.49
68506;BME280;55509;50.680;17.942;2023-01-27T01:07:03;99980.52;;;-0.72;88.46
68506;BME280;55509;50.680;17.942;2023-01-27T01:10:05;99984.77;;;-0.75;88.45
68506;BME280;55509;50.680;17.942;2023-01-27T01:13:07;99990.08;;;-0.77;88.86
68506;BME280;55509;50.680;17.942;2023-01-27T01:16:12;99990.21;;;-0.79;89.06
68506;BME280;55509;50.680;17.942;2023-01-27T01:19:13;99995.00;;;-0.81;88.83
68506;BME280;55509;50.680;17.942;2023-01-27T01:22:15;99993.23;;;-0.83;89.10
68506;BME280;55509;50.680;17.942;2023-01-27T01:25:16;99987.10;;;-0.86;88.97
68506;BME280;55509;50.680;17.942;2023-01-27T01:28:18;99987.41;;;-0.88;89.10
68506;BME280;55509;50.680;17.942;2023-01-27T01:31:19;99986.68;;;-0.90;89.17
68506;BME280;55509;50.680;17.942;2023-01-27T01:34:21;99984.84;;;-0.87;89.25
68506;BME280;55509;50.680;17.942;2023-01-27T01:37:22;99989.95;;;-0.83;89.16
68506;BME280;55509;50.680;17.942;2023-01-27T01:40:24;99992.52;;;-0.77;89.24
68506;BME280;55509;50.680;17.942;2023-01-27T01:43:25;99992.97;;;-0.72;89.36
68506;BME280;55509;50.680;17.942;2023-01-27T01:46:28;99982.56;;;-0.66;89.21
68506;BME280;55509;50.680;17.942;2023-01-27T01:49:31;99978.35;;;-0.61;89.07
68506;BME280;55509;50.680;17.942;2023-01-27T01:52:35;99977.36;;;-0.59;89.37
68506;BME280;55509;50.680;17.942;2023-01-27T01:55:37;99975.48;;;-0.58;89.13
68506;BME280;55509;50.680;17.942;2023-01-27T01:58:40;99973.38;;;-0.59;89.00
68506;BME280;55509;50.680;17.942;2023-01-27T02:01:42;99973.00;;;-0.61;89.24
68506;BME280;55509;50.680;17.942;2023-01-27T02:04:45;99971.23;;;-0.62;89.40
68506;BME280;55509;50.680;17.942;2023-01-27T02:11:08;99966.76;;;-0.70;89.26
68506;BME280;55509;50.680;17.942;2023-01-27T02:14:10;99960.66;;;-0.72;89.36
68506;BME280;55509;50.680;17.942;2023-01-27T02:17:14;99958.05;;;-0.72;89.26
68506;BME280;55509;50.680;17.942;2023-01-27T02:26:39;99958.29;;;-0.62;89.30
68506;BME280;55509;50.680;17.942;2023-01-27T02:29:42;99955.61;;;-0.58;89.33
68506;BME280;55509;50.680;17.942;2023-01-27T02:32:44;99952.92;;;-0.54;89.56
68506;BME280;55509;50.680;17.942;2023-01-27T02:38:59;99952.86;;;-0.57;89.15
68506;BME280;55509;50.680;17.942;2023-01-27T02:42:02;99947.45;;;-0.59;89.18
68506;BME280;55509;50.680;17.942;2023-01-27T02:45:05;99941.48;;;-0.65;89.07
68506;BME280;55509;50.680;17.942;2023-01-27T02:48:06;99940.89;;;-0.68;89.12
68506;BME280;55509;50.680;17.942;2023-01-27T02:51:08;99942.59;;;-0.69;89.08
68506;BME280;55509;50.680;17.942;2023-01-27T02:54:09;99940.69;;;-0.69;88.88
68506;BME280;55509;50.680;17.942;2023-01-27T02:57:11;99942.96;;;-0.68;88.89
68506;BME280;55509;50.680;17.942;2023-01-27T03:00:12;99945.64;;;-0.64;89.02
68506;BME280;55509;50.680;17.942;2023-01-27T03:03:14;99946.54;;;-0.63;89.14
68506;BME280;55509;50.680;17.942;2023-01-27T03:06:16;99941.83;;;-0.65;88.90
68506;BME280;55509;50.680;17.942;2023-01-27T03:09:17;99947.11;;;-0.67;89.00
68506;BME280;55509;50.680;17.942;2023-01-27T03:12:19;99946.54;;;-0.70;88.96
68506;BME280;55509;50.680;17.942;2023-01-27T03:15:20;99946.65;;;-0.73;89.22
68506;BME280;55509;50.680;17.942;2023-01-27T03:18:40;99947.36;;;-0.72;89.14
68506;BME280;55509;50.680;17.942;2023-01-27T03:21:47;99947.80;;;-0.68;89.81
68506;BME280;55509;50.680;17.942;2023-01-27T03:24:53;99942.17;;;-0.64;89.26
68506;BME280;55509;50.680;17.942;2023-01-27T03:27:54;99946.19;;;-0.63;88.88
68506;BME280;55509;50.680;17.942;2023-01-27T03:31:00;99951.65;;;-0.65;88.82
68506;BME280;55509;50.680;17.942;2023-01-27T03:34:01;99955.73;;;-0.68;89.08
68506;BME280;55509;50.680;17.942;2023-01-27T03:37:03;99957.89;;;-0.72;89.02
68506;BME280;55509;50.680;17.942;2023-01-27T03:40:23;99958.91;;;-0.73;89.04
68506;BME280;55509;50.680;17.942;2023-01-27T03:43:43;99964.83;;;-0.71;88.90
68506;BME280;55509;50.680;17.942;2023-01-27T03:47:04;99971.97;;;-0.68;88.86
68506;BME280;55509;50.680;17.942;2023-01-27T03:50:05;99970.81;;;-0.66;89.24
68506;BME280;55509;50.680;17.942;2023-01-27T03:53:11;99972.17;;;-0.67;89.07
68506;BME280;55509;50.680;17.942;2023-01-27T03:56:13;99976.64;;;-0.68;89.13
68506;BME280;55509;50.680;17.942;2023-01-27T03:59:15;99981.60;;;-0.70;88.97
68506;BME280;55509;50.680;17.942;2023-01-27T04:02:16;99985.84;;;-0.73;88.96
68506;BME280;55509;50.680;17.942;2023-01-27T04:05:36;99988.89;;;-0.76;89.16
68506;BME280;55509;50.680;17.942;2023-01-27T04:08:57;99991.27;;;-0.79;89.29
68506;BME280;55509;50.680;17.942;2023-01-27T04:11:59;99988.67;;;-0.78;89.16
68506;BME280;55509;50.680;17.942;2023-01-27T04:15:01;99991.69;;;-0.75;89.23
68506;BME280;55509;50.680;17.942;2023-01-27T04:18:02;99990.02;;;-0.71;89.15
68506;BME280;55509;50.680;17.942;2023-01-27T04:21:04;99992.70;;;-0.68;89.26
68506;BME280;55509;50.680;17.942;2023-01-27T04:24:06;99988.25;;;-0.66;89.28
68506;BME280;55509;50.680;17.942;2023-01-27T04:27:17;99994.46;;;-0.67;88.95
68506;BME280;55509;50.680;17.942;2023-01-27T04:30:20;99994.76;;;-0.69;89.05
68506;BME280;55509;50.680;17.942;2023-01-27T04:33:22;99998.67;;;-0.71;88.96
68506;BME280;55509;50.680;17.942;2023-01-27T04:36:24;99996.44;;;-0.71;89.04
68506;BME280;55509;50.680;17.942;2023-01-27T04:39:25;99998.58;;;-0.68;88.97
68506;BME280;55509;50.680;17.942;2023-01-27T04:42:27;100001.58;;;-0.65;88.90
68506;BME280;55509;50.680;17.942;2023-01-27T04:45:28;100003.89;;;-0.62;89.19
68506;BME280;55509;50.680;17.942;2023-01-27T04:48:29;100000.84;;;-0.60;88.91
68506;BME280;55509;50.680;17.942;2023-01-27T04:51:31;100000.48;;;-0.60;88.88
68506;BME280;55509;50.680;17.942;2023-01-27T04:54:33;100004.60;;;-0.61;88.71
68506;BME280;55509;50.680;17.942;2023-01-27T04:57:34;100005.58;;;-0.64;88.34
68506;BME280;55509;50.680;17.942;2023-01-27T05:00:36;100008.27;;;-0.67;88.57
68506;BME280;55509;50.680;17.942;2023-01-27T05:03:37;100011.26;;;-0.65;88.57
68506;BME280;55509;50.680;17.942;2023-01-27T05:06:39;100008.77;;;-0.60;88.72
68506;BME280;55509;50.680;17.942;2023-01-27T05:09:40;100003.65;;;-0.57;88.45
68506;BME280;55509;50.680;17.942;2023-01-27T05:12:41;99999.52;;;-0.56;88.40
68506;BME280;55509;50.680;17.942;2023-01-27T05:15:43;99997.60;;;-0.58;88.56
68506;BME280;55509;50.680;17.942;2023-01-27T05:18:45;99999.96;;;-0.60;88.27
68506;BME280;55509;50.680;17.942;2023-01-27T05:21:47;100003.55;;;-0.62;88.42
68506;BME280;55509;50.680;17.942;2023-01-27T05:24:49;100006.60;;;-0.64;88.39
68506;BME280;55509;50.680;17.942;2023-01-27T05:27:52;100003.92;;;-0.68;88.33
68506;BME280;55509;50.680;17.942;2023-01-27T05:30:59;100011.13;;;-0.70;88.45
68506;BME280;55509;50.680;17.942;2023-01-27T05:34:00;100012.78;;;-0.73;88.64
68506;BME280;55509;50.680;17.942;2023-01-27T05:37:02;100012.45;;;-0.72;88.56
68506;BME280;55509;50.680;17.942;2023-01-27T05:40:04;100016.99;;;-0.71;88.52
68506;BME280;55509;50.680;17.942;2023-01-27T05:43:05;100022.90;;;-0.69;88.37
68506;BME280;55509;50.680;17.942;2023-01-27T05:46:08;100023.77;;;-0.68;88.52
68506;BME280;55509;50.680;17.942;2023-01-27T05:49:10;100023.08;;;-0.69;88.62
68506;BME280;55509;50.680;17.942;2023-01-27T05:52:12;100025.27;;;-0.71;88.67
68506;BME280;55509;50.680;17.942;2023-01-27T05:55:13;100026.58;;;-0.74;88.79
68506;BME280;55509;50.680;17.942;2023-01-27T05:58:15;100026.65;;;-0.79;88.75
68506;BME280;55509;50.680;17.942;2023-01-27T06:01:18;100029.24;;;-0.79;88.79
68506;BME280;55509;50.680;17.942;2023-01-27T06:04:20;100033.80;;;-0.76;88.90
68506;BME280;55509;50.680;17.942;2023-01-27T06:07:21;100034.93;;;-0.72;88.28
68506;BME280;55509;50.680;17.942;2023-01-27T06:10:23;100038.48;;;-0.68;88.28
68506;BME280;55509;50.680;17.942;2023-01-27T06:13:25;100036.86;;;-0.63;88.04
68506;BME280;55509;50.680;17.942;2023-01-27T06:16:26;100041.55;;;-0.62;88.03
68506;BME280;55509;50.680;17.942;2023-01-27T06:19:28;100040.85;;;-0.63;87.51
68506;BME280;55509;50.680;17.942;2023-01-27T06:22:29;100046.50;;;-0.64;87.39
68506;BME280;55509;50.680;17.942;2023-01-27T06:25:34;100052.64;;;-0.68;87.36
68506;BME280;55509;50.680;17.942;2023-01-27T06:28:36;100057.59;;;-0.70;86.92
68506;BME280;55509;50.680;17.942;2023-01-27T06:31:37;100054.89;;;-0.74;87.00
68506;BME280;55509;50.680;17.942;2023-01-27T06:34:39;100059.48;;;-0.77;86.53
68506;BME280;55509;50.680;17.942;2023-01-27T06:37:40;100058.55;;;-0.81;85.56
68506;BME280;55509;50.680;17.942;2023-01-27T06:40:42;100065.52;;;-0.85;84.89
68506;BME280;55509;50.680;17.942;2023-01-27T06:43:44;100062.27;;;-0.84;84.78
68506;BME280;55509;50.680;17.942;2023-01-27T06:46:45;100060.66;;;-0.80;84.63
68506;BME280;55509;50.680;17.942;2023-01-27T06:49:47;100055.77;;;-0.74;84.59
68506;BME280;55509;50.680;17.942;2023-01-27T06:52:48;100063.87;;;-0.75;83.92
68506;BME280;55509;50.680;17.942;2023-01-27T06:55:57;100060.85;;;-0.78;83.47
68506;BME280;55509;50.680;17.942;2023-01-27T06:58:58;100064.21;;;-0.82;83.26
68506;BME280;55509;50.680;17.942;2023-01-27T07:02:00;100060.73;;;-0.85;83.16
68506;BME280;55509;50.680;17.942;2023-01-27T07:05:02;100066.88;;;-0.80;83.19
68506;BME280;55509;50.680;17.942;2023-01-27T07:08:03;100071.30;;;-0.75;82.79
68506;BME280;55509;50.680;17.942;2023-01-27T07:11:05;100071.17;;;-0.73;81.85
68506;BME280;55509;50.680;17.942;2023-01-27T07:14:06;100078.61;;;-0.72;81.37
68506;BME280;55509;50.680;17.942;2023-01-27T07:17:08;100080.48;;;-0.73;80.86
68506;BME280;55509;50.680;17.942;2023-01-27T07:20:12;100082.05;;;-0.73;81.01
68506;BME280;55509;50.680;17.942;2023-01-27T07:23:14;100082.99;;;-0.70;81.15
68506;BME280;55509;50.680;17.942;2023-01-27T07:26:15;100088.55;;;-0.68;81.23
68506;BME280;55509;50.680;17.942;2023-01-27T07:29:17;100090.33;;;-0.66;80.92
68506;BME280;55509;50.680;17.942;2023-01-27T07:32:18;100093.27;;;-0.66;80.74
68506;BME280;55509;50.680;17.942;2023-01-27T07:35:20;100093.48;;;-0.65;80.56
68506;BME280;55509;50.680;17.942;2023-01-27T07:38:22;100095.24;;;-0.63;80.68
68506;BME280;55509;50.680;17.942;2023-01-27T07:41:24;100095.27;;;-0.62;80.16
68506;BME280;55509;50.680;17.942;2023-01-27T07:44:26;100094.24;;;-0.61;79.64
68506;BME280;55509;50.680;17.942;2023-01-27T07:47:28;100093.58;;;-0.60;79.22
68506;BME280;55509;50.680;17.942;2023-01-27T07:50:29;100093.25;;;-0.60;79.22
68506;BME280;55509;50.680;17.942;2023-01-27T07:53:31;100096.19;;;-0.60;78.51
68506;BME280;55509;50.680;17.942;2023-01-27T07:56:32;100096.02;;;-0.59;78.42
68506;BME280;55509;50.680;17.942;2023-01-27T07:59:36;100097.83;;;-0.56;77.88
68506;BME280;55509;50.680;17.942;2023-01-27T08:02:38;100097.02;;;-0.46;78.20
68506;BME280;55509;50.680;17.942;2023-01-27T08:05:39;100100.41;;;-0.34;77.73
68506;BME280;55509;50.680;17.942;2023-01-27T08:08:43;100099.66;;;-0.21;77.75
68506;BME280;55509;50.680;17.942;2023-01-27T08:11:44;100097.39;;;0.19;77.32
68506;BME280;55509;50.680;17.942;2023-01-27T08:14:46;100096.89;;;0.46;75.48
68506;BME280;55509;50.680;17.942;2023-01-27T08:17:57;100101.78;;;0.48;74.23
68506;BME280;55509;50.680;17.942;2023-01-27T08:20:59;100101.28;;;0.49;74.21
68506;BME280;55509;50.680;17.942;2023-01-27T08:24:01;100102.89;;;0.61;72.81
68506;BME280;55509;50.680;17.942;2023-01-27T08:27:03;100094.70;;;1.29;71.09
68506;BME280;55509;50.680;17.942;2023-01-27T08:30:04;100091.97;;;2.30;69.09
68506;BME280;55509;50.680;17.942;2023-01-27T08:33:06;100090.63;;;2.34;68.11
68506;BME280;55509;50.680;17.942;2023-01-27T08:36:09;100092.27;;;2.11;67.21
68506;BME280;55509;50.680;17.942;2023-01-27T08:39:11;100090.73;;;1.87;66.76
68506;BME280;55509;50.680;17.942;2023-01-27T08:42:13;100089.98;;;1.70;67.29
68506;BME280;55509;50.680;17.942;2023-01-27T08:45:14;100087.65;;;1.66;68.07
68506;BME280;55509;50.680;17.942;2023-01-27T08:48:16;100089.43;;;1.57;67.50
68506;BME280;55509;50.680;17.942;2023-01-27T08:51:17;100089.83;;;1.48;67.48
68506;BME280;55509;50.680;17.942;2023-01-27T08:54:19;100095.40;;;1.50;67.90
68506;BME280;55509;50.680;17.942;2023-01-27T08:57:20;100095.46;;;1.54;67.92
68506;BME280;55509;50.680;17.942;2023-01-27T09:00:22;100096.11;;;1.63;68.36
68506;BME280;55509;50.680;17.942;2023-01-27T09:03:23;100100.02;;;1.70;67.44
68506;BME280;55509;50.680;17.942;2023-01-27T09:06:26;100101.93;;;1.69;66.41
68506;BME280;55509;50.680;17.942;2023-01-27T09:09:28;100109.40;;;1.71;65.71
68506;BME280;55509;50.680;17.942;2023-01-27T09:12:29;100109.26;;;1.73;65.11
68506;BME280;55509;50.680;17.942;2023-01-27T09:15:31;100113.92;;;1.72;65.46
68506;BME280;55509;50.680;17.942;2023-01-27T09:18:32;100114.94;;;1.70;66.43
68506;BME280;55509;50.680;17.942;2023-01-27T09:21:34;100118.25;;;1.71;65.92
68506;BME280;55509;50.680;17.942;2023-01-27T09:24:35;100117.69;;;1.79;65.02
68506;BME280;55509;50.680;17.942;2023-01-27T09:27:37;100118.88;;;2.03;64.23
68506;BME280;55509;50.680;17.942;2023-01-27T09:30:38;100119.79;;;2.34;64.28
68506;BME280;55509;50.680;17.942;2023-01-27T09:33:40;100122.38;;;2.78;63.72
68506;BME280;55509;50.680;17.942;2023-01-27T09:36:44;100119.81;;;3.19;62.82
68506;BME280;55509;50.680;17.942;2023-01-27T09:39:51;100119.50;;;3.66;61.62
68506;BME280;55509;50.680;17.942;2023-01-27T09:42:59;100118.17;;;4.05;60.68
68506;BME280;55509;50.680;17.942;2023-01-27T09:49:31;100114.77;;;4.19;58.61
68506;BME280;55509;50.680;17.942;2023-01-27T09:56:04;100128.89;;;3.92;59.51
68506;BME280;55509;50.680;17.942;2023-01-27T10:12:15;100132.33;;;3.36;58.89
68506;BME280;55509;50.680;17.942;2023-01-27T10:15:29;100132.28;;;3.32;59.42
68506;BME280;55509;50.680;17.942;2023-01-27T10:22:28;100121.40;;;3.01;58.84
68506;BME280;55509;50.680;17.942;2023-01-27T10:28:23;100122.20;;;2.77;60.03
68506;BME280;55509;50.680;17.942;2023-01-27T10:31:31;100130.60;;;2.68;60.31
68506;BME280;55509;50.680;17.942;2023-01-27T10:34:36;100133.40;;;2.54;60.09
68506;BME280;55509;50.680;17.942;2023-01-27T10:50:06;100127.44;;;1.71;62.27
68506;BME280;55509;50.680;17.942;2023-01-27T10:53:14;100124.52;;;1.60;62.74
68506;BME280;55509;50.680;17.942;2023-01-27T10:56:22;100126.90;;;1.46;62.99
68506;BME280;55509;50.680;17.942;2023-01-27T11:05:50;100129.67;;;1.15;63.91
68506;BME280;55509;50.680;17.942;2023-01-27T11:08:54;100130.45;;;1.11;64.47
68506;BME280;55509;50.680;17.942;2023-01-27T11:12:03;100133.23;;;1.10;65.10
68506;BME280;55509;50.680;17.942;2023-01-27T11:18:18;100132.77;;;1.04;65.37
68506;BME280;55509;50.680;17.942;2023-01-27T11:21:25;100127.05;;;1.04;65.39
68506;BME280;55509;50.680;17.942;2023-01-27T11:24:31;100124.84;;;1.07;65.40
68506;BME280;55509;50.680;17.942;2023-01-27T11:27:54;100125.58;;;1.09;65.01
68506;BME280;55509;50.680;17.942;2023-01-27T11:31:01;100122.60;;;1.07;64.76
68506;BME280;55509;50.680;17.942;2023-01-27T11:37:18;100112.46;;;1.12;64.61
68506;BME280;55509;50.680;17.942;2023-01-27T11:40:33;100112.64;;;1.12;65.10
68506;BME280;55509;50.680;17.942;2023-01-27T11:43:35;100108.31;;;1.13;65.03
68506;BME280;55509;50.680;17.942;2023-01-27T11:46:38;100105.80;;;1.18;65.58
68506;BME280;55509;50.680;17.942;2023-01-27T11:49:42;100104.63;;;1.20;65.54
68506;BME280;55509;50.680;17.942;2023-01-27T11:52:46;100108.88;;;1.15;64.63
68506;BME280;55509;50.680;17.942;2023-01-27T11:56:08;100104.97;;;1.09;64.81
68506;BME280;55509;50.680;17.942;2023-01-27T11:59:23;100107.71;;;1.18;64.59
68506;BME280;55509;50.680;17.942;2023-01-27T12:05:32;100096.56;;;1.70;64.40
68506;BME280;55509;50.680;17.942;2023-01-27T12:08:35;100093.27;;;1.81;64.09
68506;BME280;55509;50.680;17.942;2023-01-27T12:11:37;100100.64;;;1.89;63.28
68506;BME280;55509;50.680;17.942;2023-01-27T12:14:39;100098.91;;;1.88;63.13
68506;BME280;55509;50.680;17.942;2023-01-27T12:17:47;100104.46;;;1.90;62.83
68506;BME280;55509;50.680;17.942;2023-01-27T12:20:59;100102.67;;;1.85;62.24
68506;BME280;55509;50.680;17.942;2023-01-27T12:24:01;100100.43;;;1.73;61.89
68506;BME280;55509;50.680;17.942;2023-01-27T12:27:03;100102.07;;;1.67;62.26
68506;BME280;55509;50.680;17.942;2023-01-27T12:30:07;100102.20;;;1.64;61.89
68506;BME280;55509;50.680;17.942;2023-01-27T12:33:22;100105.95;;;1.61;62.01
68506;BME280;55509;50.680;17.942;2023-01-27T12:36:24;100103.50;;;1.58;61.52
68506;BME280;55509;50.680;17.942;2023-01-27T12:45:33;100104.99;;;1.65;62.44
68506;BME280;55509;50.680;17.942;2023-01-27T12:49:00;100105.83;;;1.63;62.66
68506;BME280;55509;50.680;17.942;2023-01-27T12:52:05;100106.55;;;1.65;61.82
68506;BME280;55509;50.680;17.942;2023-01-27T12:55:26;100106.38;;;1.65;61.66
68506;BME280;55509;50.680;17.942;2023-01-27T12:58:29;100100.44;;;1.75;62.00
68506;BME280;55509;50.680;17.942;2023-01-27T13:01:35;100098.64;;;1.82;61.67
68506;BME280;55509;50.680;17.942;2023-01-27T13:04:38;100101.23;;;1.81;61.26
68506;BME280;55509;50.680;17.942;2023-01-27T13:07:43;100103.38;;;1.74;61.36
68506;BME280;55509;50.680;17.942;2023-01-27T13:10:55;100102.06;;;1.67;61.74
68506;BME280;55509;50.680;17.942;2023-01-27T13:13:57;100106.52;;;1.62;61.53
68506;BME280;55509;50.680;17.942;2023-01-27T13:16:59;100109.52;;;1.55;61.95
68506;BME280;55509;50.680;17.942;2023-01-27T13:20:44;100113.37;;;1.47;61.79
68506;BME280;55509;50.680;17.942;2023-01-27T13:23:27;100117.57;;;1.38;62.21
68506;BME280;55509;50.680;17.942;2023-01-27T13:26:32;100120.63;;;1.35;62.36
68506;BME280;55509;50.680;17.942;2023-01-27T13:29:34;100127.92;;;1.35;62.58
68506;BME280;55509;50.680;17.942;2023-01-27T13:32:36;100128.78;;;1.34;62.93
68506;BME280;55509;50.680;17.942;2023-01-27T13:35:46;100126.52;;;1.35;62.49
68506;BME280;55509;50.680;17.942;2023-01-27T13:38:58;100130.49;;;1.34;62.39
68506;BME280;55509;50.680;17.942;2023-01-27T13:45:17;100141.23;;;1.23;61.26
68506;BME280;55509;50.680;17.942;2023-01-27T13:51:22;100144.90;;;1.05;61.58
68506;BME280;55509;50.680;17.942;2023-01-27T13:54:25;100145.91;;;1.02;61.89
68506;BME280;55509;50.680;17.942;2023-01-27T14:04:12;100156.73;;;0.89;60.76
68506;BME280;55509;50.680;17.942;2023-01-27T14:10:40;100164.35;;;0.79;61.58
68506;BME280;55509;50.680;17.942;2023-01-27T14:16:58;100166.48;;;0.74;62.14
68506;BME280;55509;50.680;17.942;2023-01-27T14:29:40;100173.25;;;0.66;62.84
68506;BME280;55509;50.680;17.942;2023-01-27T14:32:50;100172.52;;;0.63;62.97
68506;BME280;55509;50.680;17.942;2023-01-27T14:35:57;100170.21;;;0.61;62.85
68506;BME280;55509;50.680;17.942;2023-01-27T14:45:31;100172.54;;;0.56;63.40
68506;BME280;55509;50.680;17.942;2023-01-27T14:48:44;100166.20;;;0.51;63.70
68506;BME280;55509;50.680;17.942;2023-01-27T14:51:53;100173.75;;;0.47;63.84
68506;BME280;55509;50.680;17.942;2023-01-27T15:10:48;100171.02;;;0.33;64.89
68506;BME280;55509;50.680;17.942;2023-01-27T15:23:56;100169.93;;;0.22;66.04
68506;BME280;55509;50.680;17.942;2023-01-27T15:27:01;100172.80;;;0.18;66.01
68506;BME280;55509;50.680;17.942;2023-01-27T15:30:16;100175.14;;;0.16;66.36
68506;BME280;55509;50.680;17.942;2023-01-27T15:40:21;100184.16;;;0.09;67.10
68506;BME280;55509;50.680;17.942;2023-01-27T15:43:24;100188.13;;;0.08;67.30
68506;BME280;55509;50.680;17.942;2023-01-27T15:46:30;100187.49;;;0.10;67.59
68506;BME280;55509;50.680;17.942;2023-01-27T15:52:43;100194.14;;;0.21;68.03
68506;BME280;55509;50.680;17.942;2023-01-27T15:55:52;100201.48;;;0.25;67.91
68506;BME280;55509;50.680;17.942;2023-01-27T15:58:57;100205.47;;;0.25;68.01
68506;BME280;55509;50.680;17.942;2023-01-27T16:02:10;100212.55;;;0.25;68.07
68506;BME280;55509;50.680;17.942;2023-01-27T16:05:24;100210.93;;;0.22;68.43
68506;BME280;55509;50.680;17.942;2023-01-27T16:08:29;100217.96;;;0.19;68.14
68506;BME280;55509;50.680;17.942;2023-01-27T16:17:54;100224.86;;;0.11;68.99
68506;BME280;55509;50.680;17.942;2023-01-27T16:21:00;100227.77;;;0.09;69.27
68506;BME280;55509;50.680;17.942;2023-01-27T16:24:04;100228.04;;;0.06;69.51
68506;BME280;55509;50.680;17.942;2023-01-27T16:27:31;100230.75;;;0.04;69.66
68506;BME280;55509;50.680;17.942;2023-01-27T16:30:39;100230.16;;;0.01;69.58
68506;BME280;55509;50.680;17.942;2023-01-27T16:33:44;100229.76;;;-0.02;69.76
68506;BME280;55509;50.680;17.942;2023-01-27T16:36:46;100232.31;;;-0.04;69.68
68506;BME280;55509;50.680;17.942;2023-01-27T16:45:53;100231.34;;;-0.08;70.10
68506;BME280;55509;50.680;17.942;2023-01-27T16:48:55;100229.54;;;-0.11;70.45
68506;BME280;55509;50.680;17.942;2023-01-27T16:51:58;100236.09;;;-0.11;70.68
68506;BME280;55509;50.680;17.942;2023-01-27T16:55:01;100233.64;;;-0.13;70.95
68506;BME280;55509;50.680;17.942;2023-01-27T16:58:03;100235.17;;;-0.14;70.90
68506;BME280;55509;50.680;17.942;2023-01-27T17:01:12;100242.92;;;-0.15;70.90
68506;BME280;55509;50.680;17.942;2023-01-27T17:04:22;100242.89;;;-0.17;70.86
68506;BME280;55509;50.680;17.942;2023-01-27T17:07:24;100233.87;;;-0.18;71.30
68506;BME280;55509;50.680;17.942;2023-01-27T17:10:26;100238.70;;;-0.18;71.21
68506;BME280;55509;50.680;17.942;2023-01-27T17:13:33;100240.77;;;-0.19;71.39
68506;BME280;55509;50.680;17.942;2023-01-27T17:16:36;100241.27;;;-0.19;71.57
68506;BME280;55509;50.680;17.942;2023-01-27T17:19:40;100241.66;;;-0.18;71.66
68506;BME280;55509;50.680;17.942;2023-01-27T17:22:46;100240.20;;;-0.13;71.76
68506;BME280;55509;50.680;17.942;2023-01-27T17:25:54;100245.52;;;-0.08;71.59
68506;BME280;55509;50.680;17.942;2023-01-27T17:28:55;100245.09;;;-0.04;71.39
68506;BME280;55509;50.680;17.942;2023-01-27T17:31:57;100246.19;;;-0.01;71.66
68506;BME280;55509;50.680;17.942;2023-01-27T17:35:00;100242.23;;;-0.01;71.89
68506;BME280;55509;50.680;17.942;2023-01-27T17:44:27;100253.08;;;-0.03;72.32
68506;BME280;55509;50.680;17.942;2023-01-27T17:47:29;100247.48;;;-0.06;72.55
68506;BME280;55509;50.680;17.942;2023-01-27T17:50:32;100247.41;;;-0.09;72.38
68506;BME280;55509;50.680;17.942;2023-01-27T17:53:36;100247.48;;;-0.12;72.73
68506;BME280;55509;50.680;17.942;2023-01-27T17:56:39;100241.02;;;-0.16;72.55
68506;BME280;55509;50.680;17.942;2023-01-27T18:00:03;100241.82;;;-0.18;72.76
68506;BME280;55509;50.680;17.942;2023-01-27T18:03:08;100237.92;;;-0.21;72.77
68506;BME280;55509;50.680;17.942;2023-01-27T18:06:13;100240.64;;;-0.24;73.17
68506;BME280;55509;50.680;17.942;2023-01-27T18:09:17;100234.03;;;-0.26;73.04
68506;BME280;55509;50.680;17.942;2023-01-27T18:12:29;100232.58;;;-0.29;73.16
68506;BME280;55509;50.680;17.942;2023-01-27T18:15:36;100234.09;;;-0.30;73.39
68506;BME280;55509;50.680;17.942;2023-01-27T18:18:38;100234.98;;;-0.29;73.10
68506;BME280;55509;50.680;17.942;2023-01-27T18:21:40;100240.10;;;-0.25;73.02
68506;BME280;55509;50.680;17.942;2023-01-27T18:24:52;100245.39;;;-0.20;73.46
68506;BME280;55509;50.680;17.942;2023-01-27T18:27:54;100249.86;;;-0.14;73.35
68506;BME280;55509;50.680;17.942;2023-01-27T18:30:57;100252.21;;;-0.10;73.77
68506;BME280;55509;50.680;17.942;2023-01-27T18:34:00;100261.48;;;-0.06;73.37
68506;BME280;55509;50.680;17.942;2023-01-27T18:37:03;100262.73;;;-0.04;73.35
68506;BME280;55509;50.680;17.942;2023-01-27T18:40:26;100260.51;;;-0.04;73.18
68506;BME280;55509;50.680;17.942;2023-01-27T18:43:28;100269.11;;;-0.05;73.42
68506;BME280;55509;50.680;17.942;2023-01-27T18:46:30;100265.93;;;-0.07;73.57